sensor_id;sensor_type;location;lat;lon;timestamp;pressure;altitude;pressure_sealevel;temperature;humidity
45129;BME280;35512;56.312;101.728;2023-02-28T00:01:55;97632.44;;;-13.68;62.19
45129;BME280;35512;56.312;101.728;2023-02-28T00:04:25;97624.38;;;-13.73;62.46
45129;BME280;35512;56.312;101.728;2023-02-28T00:06:54;97630.19;;;-13.71;62.22
45129;BME280;35512;56.312;101.728;2023-02-28T00:09:22;97627.94;;;-13.74;62.76
45129;BME280;35512;56.312;101.728;2023-02-28T00:11:51;97629.19;;;-13.70;62.77
45129;BME280;35512;56.312;101.728;2023-02-28T00:14:20;97643.72;;;-13.61;62.44
45129;BME280;35512;56.312;101.728;2023-02-28T00:16:49;97634.59;;;-13.57;62.71
45129;BME280;35512;56.312;101.728;2023-02-28T00:19:18;97632.47;;;-13.53;62.52
45129;BME280;35512;56.312;101.728;2023-02-28T00:21:47;97639.69;;;-13.49;62.33
45129;BME280;35512;56.312;101.728;2023-02-28T00:24:16;97645.44;;;-13.53;62.32
45129;BME280;35512;56.312;101.728;2023-02-28T00:26:44;97644.97;;;-13.57;62.71
45129;BME280;35512;56.312;101.728;2023-02-28T00:29:13;97642.28;;;-13.64;62.55
45129;BME280;35512;56.312;101.728;2023-02-28T00:31:44;97641.50;;;-13.64;62.68
45129;BME280;35512;56.312;101.728;2023-02-28T00:34:13;97646.31;;;-13.61;62.40
45129;BME280;35512;56.312;101.728;2023-02-28T00:36:43;97645.97;;;-13.58;62.38
45129;BME280;35512;56.312;101.728;2023-02-28T00:39:15;97652.41;;;-13.54;62.66
45129;BME280;35512;56.312;101.728;2023-02-28T00:41:44;97644.81;;;-13.40;62.67
45129;BME280;35512;56.312;101.728;2023-02-28T00:44:14;97638.88;;;-13.04;62.47
45129;BME280;35512;56.312;101.728;2023-02-28T00:46:43;97641.59;;;-12.54;62.06
45129;BME280;35512;56.312;101.728;2023-02-28T00:49:12;97656.97;;;-11.95;61.52
45129;BME280;35512;56.312;101.728;2023-02-28T00:51:42;97647.34;;;-11.38;61.19
45129;BME280;35512;56.312;101.728;2023-02-28T00:54:11;97651.81;;;-10.83;60.91
45129;BME280;35512;56.312;101.728;2023-02-28T00:56:40;97645.50;;;-10.27;60.83
45129;BME280;35512;56.312;101.728;2023-02-28T00:59:09;97649.19;;;-9.81;60.43
45129;BME280;35512;56.312;101.728;2023-02-28T01:01:39;97639.47;;;-9.27;60.32
45129;BME280;35512;56.312;101.728;2023-02-28T01:04:08;97656.22;;;-8.76;59.62
45129;BME280;35512;56.312;101.728;2023-02-28T01:06:38;97645.50;;;-8.36;59.43
45129;BME280;35512;56.312;101.728;2023-02-28T01:09:11;97657.69;;;-7.84;59.42
45129;BME280;35512;56.312;101.728;2023-02-28T01:11:42;97642.38;;;-7.37;58.84
45129;BME280;35512;56.312;101.728;2023-02-28T01:14:14;97646.63;;;-6.99;58.41
45129;BME280;35512;56.312;101.728;2023-02-28T01:16:43;97651.63;;;-6.60;58.71
45129;BME280;35512;56.312;101.728;2023-02-28T01:19:12;97647.25;;;-6.17;58.03
45129;BME280;35512;56.312;101.728;2023-02-28T01:21:41;97656.22;;;-5.71;57.83
45129;BME280;35512;56.312;101.728;2023-02-28T01:24:13;97655.25;;;-5.34;57.61
45129;BME280;35512;56.312;101.728;2023-02-28T01:26:42;97638.63;;;-5.11;57.29
45129;BME280;35512;56.312;101.728;2023-02-28T01:29:11;97664.19;;;-4.59;56.99
45129;BME280;35512;56.312;101.728;2023-02-28T01:31:39;97665.09;;;-4.25;57.12
45129;BME280;35512;56.312;101.728;2023-02-28T01:34:08;97661.00;;;-4.03;56.74
45129;BME280;35512;56.312;101.728;2023-02-28T01:36:37;97662.47;;;-3.79;56.18
45129;BME280;35512;56.312;101.728;2023-02-28T01:39:06;97664.88;;;-3.43;55.96
45129;BME280;35512;56.312;101.728;2023-02-28T01:41:35;97665.03;;;-2.94;55.78
45129;BME280;35512;56.312;101.728;2023-02-28T01:44:07;97668.69;;;-2.56;55.46
45129;BME280;35512;56.312;101.728;2023-02-28T01:46:56;97673.97;;;-2.11;55.20
45129;BME280;35512;56.312;101.728;2023-02-28T01:49:25;97666.44;;;-1.65;54.80
45129;BME280;35512;56.312;101.728;2023-02-28T01:51:55;97666.81;;;-1.13;54.24
45129;BME280;35512;56.312;101.728;2023-02-28T01:54:31;97660.72;;;-0.66;54.02
45129;BME280;35512;56.312;101.728;2023-02-28T01:57:09;97669.63;;;-0.24;53.03
45129;BME280;35512;56.312;101.728;2023-02-28T01:59:52;97668.94;;;0.16;53.22
45129;BME280;35512;56.312;101.728;2023-02-28T02:02:24;97669.75;;;0.43;52.61
45129;BME280;35512;56.312;101.728;2023-02-28T02:05:12;97679.59;;;0.63;53.00
45129;BME280;35512;56.312;101.728;2023-02-28T02:07:45;97681.16;;;0.74;52.25
45129;BME280;35512;56.312;101.728;2023-02-28T02:18:53;97678.00;;;2.18;51.28
45129;BME280;35512;56.312;101.728;2023-02-28T02:33:27;97680.66;;;3.17;49.72
45129;BME280;35512;56.312;101.728;2023-02-28T02:36:35;97673.00;;;3.59;48.86
45129;BME280;35512;56.312;101.728;2023-02-28T02:39:11;97675.63;;;3.83;48.26
45129;BME280;35512;56.312;101.728;2023-02-28T02:41:59;97673.63;;;4.13;47.79
45129;BME280;35512;56.312;101.728;2023-02-28T02:44:47;97677.47;;;4.26;47.19
45129;BME280;35512;56.312;101.728;2023-02-28T02:47:20;97679.47;;;4.34;47.21
45129;BME280;35512;56.312;101.728;2023-02-28T02:49:56;97679.00;;;4.46;47.23
45129;BME280;35512;56.312;101.728;2023-02-28T02:52:38;97677.50;;;4.59;46.42
45129;BME280;35512;56.312;101.728;2023-02-28T02:55:11;97672.69;;;4.74;46.87
45129;BME280;35512;56.312;101.728;2023-02-28T02:57:52;97671.47;;;5.14;45.52
45129;BME280;35512;56.312;101.728;2023-02-28T03:00:32;97671.75;;;4.98;45.19
45129;BME280;35512;56.312;101.728;2023-02-28T03:03:04;97681.78;;;5.06;45.57
45129;BME280;35512;56.312;101.728;2023-02-28T03:05:42;97675.25;;;5.68;46.20
45129;BME280;35512;56.312;101.728;2023-02-28T03:08:14;97680.50;;;6.15;44.80
45129;BME280;35512;56.312;101.728;2023-02-28T03:10:46;97676.09;;;6.19;44.21
45129;BME280;35512;56.312;101.728;2023-02-28T03:30:30;97677.06;;;5.59;43.49
45129;BME280;35512;56.312;101.728;2023-02-28T03:33:24;97673.19;;;4.25;43.05
45129;BME280;35512;56.312;101.728;2023-02-28T03:36:04;97674.19;;;3.23;44.30
45129;BME280;35512;56.312;101.728;2023-02-28T03:38:49;97671.50;;;3.71;44.23
45129;BME280;35512;56.312;101.728;2023-02-28T03:41:25;97677.81;;;3.57;42.92
45129;BME280;35512;56.312;101.728;2023-02-28T03:44:15;97683.44;;;3.31;43.02
45129;BME280;35512;56.312;101.728;2023-02-28T03:46:54;97678.97;;;3.26;43.47
45129;BME280;35512;56.312;101.728;2023-02-28T03:49:32;97680.28;;;2.99;42.55
45129;BME280;35512;56.312;101.728;2023-02-28T03:52:05;97682.34;;;2.44;42.91
45129;BME280;35512;56.312;101.728;2023-02-28T03:54:41;97679.91;;;2.82;43.55
45129;BME280;35512;56.312;101.728;2023-02-28T04:00:07;97659.78;;;4.63;40.50
45129;BME280;35512;56.312;101.728;2023-02-28T04:02:42;97658.59;;;5.16;40.20
45129;BME280;35512;56.312;101.728;2023-02-28T04:05:11;97664.88;;;4.45;40.12
45129;BME280;35512;56.312;101.728;2023-02-28T04:07:40;97657.44;;;4.75;40.79
45129;BME280;35512;56.312;101.728;2023-02-28T04:10:09;97661.25;;;5.02;39.76
45129;BME280;35512;56.312;101.728;2023-02-28T04:12:39;97656.69;;;4.55;40.76
45129;BME280;35512;56.312;101.728;2023-02-28T04:15:08;97661.56;;;2.75;41.11
45129;BME280;35512;56.312;101.728;2023-02-28T04:17:38;97652.69;;;0.75;42.31
45129;BME280;35512;56.312;101.728;2023-02-28T04:20:08;97665.66;;;-0.11;44.82
45129;BME280;35512;56.312;101.728;2023-02-28T04:22:40;97651.91;;;0.12;44.42
45129;BME280;35512;56.312;101.728;2023-02-28T04:25:08;97659.66;;;-0.65;44.69
45129;BME280;35512;56.312;101.728;2023-02-28T04:27:39;97668.75;;;-1.74;44.91
45129;BME280;35512;56.312;101.728;2023-02-28T04:30:08;97669.78;;;-2.07;46.08
45129;BME280;35512;56.312;101.728;2023-02-28T04:32:37;97674.22;;;-1.53;46.41
45129;BME280;35512;56.312;101.728;2023-02-28T04:35:06;97659.91;;;-1.52;45.32
45129;BME280;35512;56.312;101.728;2023-02-28T04:37:38;97664.00;;;-1.72;45.33
45129;BME280;35512;56.312;101.728;2023-02-28T04:40:08;97655.81;;;-1.32;45.22
45129;BME280;35512;56.312;101.728;2023-02-28T04:42:38;97657.59;;;-0.47;45.11
45129;BME280;35512;56.312;101.728;2023-02-28T04:45:08;97648.69;;;0.05;44.41
45129;BME280;35512;56.312;101.728;2023-02-28T04:47:38;97648.69;;;0.05;43.88
45129;BME280;35512;56.312;101.728;2023-02-28T04:50:08;97648.06;;;-0.43;44.44
45129;BME280;35512;56.312;101.728;2023-02-28T04:52:37;97644.38;;;-1.00;44.15
45129;BME280;35512;56.312;101.728;2023-02-28T04:55:06;97643.69;;;-1.61;44.83
45129;BME280;35512;56.312;101.728;2023-02-28T04:57:35;97646.94;;;-1.86;45.02
45129;BME280;35512;56.312;101.728;2023-02-28T05:00:05;97648.38;;;-2.00;45.16
45129;BME280;35512;56.312;101.728;2023-02-28T05:02:40;97637.91;;;-2.17;45.22
45129;BME280;35512;56.312;101.728;2023-02-28T05:05:09;97639.19;;;-2.69;45.08
45129;BME280;35512;56.312;101.728;2023-02-28T05:07:38;97621.31;;;-3.01;45.81
45129;BME280;35512;56.312;101.728;2023-02-28T05:10:07;97619.91;;;-1.88;46.27
45129;BME280;35512;56.312;101.728;2023-02-28T05:12:37;97611.47;;;-0.36;44.48
45129;BME280;35512;56.312;101.728;2023-02-28T05:15:09;97611.41;;;1.68;43.85
45129;BME280;35512;56.312;101.728;2023-02-28T05:17:41;97609.75;;;3.73;41.99
45129;BME280;35512;56.312;101.728;2023-02-28T05:20:10;97609.59;;;5.15;40.33
45129;BME280;35512;56.312;101.728;2023-02-28T05:22:43;97608.66;;;5.75;39.84
45129;BME280;35512;56.312;101.728;2023-02-28T05:25:15;97604.97;;;6.22;40.43
45129;BME280;35512;56.312;101.728;2023-02-28T05:27:45;97598.19;;;7.10;38.74
45129;BME280;35512;56.312;101.728;2023-02-28T05:30:14;97607.44;;;6.64;38.96
45129;BME280;35512;56.312;101.728;2023-02-28T05:32:43;97606.59;;;4.89;38.71
45129;BME280;35512;56.312;101.728;2023-02-28T05:35:12;97594.03;;;4.43;40.09
45129;BME280;35512;56.312;101.728;2023-02-28T05:37:41;97592.69;;;5.70;39.56
45129;BME280;35512;56.312;101.728;2023-02-28T05:40:10;97594.38;;;6.71;37.99
45129;BME280;35512;56.312;101.728;2023-02-28T05:42:40;97592.69;;;7.24;37.24
45129;BME280;35512;56.312;101.728;2023-02-28T05:45:09;97585.25;;;7.12;37.09
45129;BME280;35512;56.312;101.728;2023-02-28T05:47:39;97588.47;;;6.15;37.97
45129;BME280;35512;56.312;101.728;2023-02-28T05:50:08;97576.13;;;5.54;37.97
45129;BME280;35512;56.312;101.728;2023-02-28T05:52:38;97575.59;;;5.16;38.28
45129;BME280;35512;56.312;101.728;2023-02-28T05:55:08;97568.31;;;4.28;38.49
45129;BME280;35512;56.312;101.728;2023-02-28T05:57:38;97570.38;;;3.41;39.60
45129;BME280;35512;56.312;101.728;2023-02-28T06:00:08;97566.84;;;2.78;39.98
45129;BME280;35512;56.312;101.728;2023-02-28T06:02:41;97562.56;;;2.23;40.37
45129;BME280;35512;56.312;101.728;2023-02-28T06:05:16;97557.97;;;2.29;40.38
45129;BME280;35512;56.312;101.728;2023-02-28T06:07:45;97562.06;;;2.21;40.28
45129;BME280;35512;56.312;101.728;2023-02-28T06:10:14;97561.69;;;1.59;40.12
45129;BME280;35512;56.312;101.728;2023-02-28T06:12:43;97556.91;;;1.00;40.86
45129;BME280;35512;56.312;101.728;2023-02-28T06:15:14;97540.44;;;0.93;41.91
45129;BME280;35512;56.312;101.728;2023-02-28T06:17:44;97532.66;;;1.12;42.32
45129;BME280;35512;56.312;101.728;2023-02-28T06:20:13;97535.47;;;1.76;42.30
45129;BME280;35512;56.312;101.728;2023-02-28T06:22:42;97540.41;;;2.81;41.51
45129;BME280;35512;56.312;101.728;2023-02-28T06:25:11;97535.59;;;3.84;40.59
45129;BME280;35512;56.312;101.728;2023-02-28T06:27:40;97529.84;;;4.56;39.48
45129;BME280;35512;56.312;101.728;2023-02-28T06:30:10;97529.38;;;4.68;39.02
45129;BME280;35512;56.312;101.728;2023-02-28T06:32:39;97529.66;;;4.53;39.31
45129;BME280;35512;56.312;101.728;2023-02-28T06:35:08;97518.53;;;4.46;39.20
45129;BME280;35512;56.312;101.728;2023-02-28T06:37:38;97529.97;;;4.18;39.43
45129;BME280;35512;56.312;101.728;2023-02-28T06:40:09;97529.53;;;3.78;39.40
45129;BME280;35512;56.312;101.728;2023-02-28T06:42:38;97511.25;;;2.85;39.88
45129;BME280;35512;56.312;101.728;2023-02-28T06:45:08;97524.63;;;2.31;40.82
45129;BME280;35512;56.312;101.728;2023-02-28T06:47:39;97521.13;;;2.36;41.44
45129;BME280;35512;56.312;101.728;2023-02-28T06:50:11;97518.88;;;2.48;40.99
45129;BME280;35512;56.312;101.728;2023-02-28T06:52:40;97514.25;;;2.30;40.87
45129;BME280;35512;56.312;101.728;2023-02-28T06:55:10;97517.66;;;1.72;41.25
45129;BME280;35512;56.312;101.728;2023-02-28T06:57:39;97496.69;;;1.20;41.41
45129;BME280;35512;56.312;101.728;2023-02-28T07:00:09;97507.56;;;0.63;41.53
45129;BME280;35512;56.312;101.728;2023-02-28T07:02:39;97502.09;;;0.03;40.94
45129;BME280;35512;56.312;101.728;2023-02-28T07:05:08;97511.13;;;-0.29;41.11
45129;BME280;35512;56.312;101.728;2023-02-28T07:07:37;97499.44;;;-0.54;42.18
45129;BME280;35512;56.312;101.728;2023-02-28T07:10:10;97500.19;;;-0.74;40.98
45129;BME280;35512;56.312;101.728;2023-02-28T07:12:39;97499.00;;;-1.14;41.23
45129;BME280;35512;56.312;101.728;2023-02-28T07:15:09;97498.38;;;-1.37;40.51
45129;BME280;35512;56.312;101.728;2023-02-28T07:17:38;97493.28;;;-1.54;41.41
45129;BME280;35512;56.312;101.728;2023-02-28T07:20:07;97491.00;;;-1.29;41.64
45129;BME280;35512;56.312;101.728;2023-02-28T07:22:36;97486.56;;;-1.08;40.77
45129;BME280;35512;56.312;101.728;2023-02-28T07:25:07;97488.47;;;-0.93;40.14
45129;BME280;35512;56.312;101.728;2023-02-28T07:27:36;97478.66;;;-0.93;40.84
45129;BME280;35512;56.312;101.728;2023-02-28T07:30:06;97479.47;;;-0.92;40.27
45129;BME280;35512;56.312;101.728;2023-02-28T07:32:35;97474.91;;;-1.07;40.74
45129;BME280;35512;56.312;101.728;2023-02-28T07:35:06;97472.47;;;-1.24;40.55
45129;BME280;35512;56.312;101.728;2023-02-28T07:37:35;97480.06;;;-1.43;40.20
45129;BME280;35512;56.312;101.728;2023-02-28T07:40:10;97468.19;;;-1.36;40.33
45129;BME280;35512;56.312;101.728;2023-02-28T07:42:42;97456.06;;;-1.21;39.98
45129;BME280;35512;56.312;101.728;2023-02-28T07:45:11;97459.53;;;-1.00;40.03
45129;BME280;35512;56.312;101.728;2023-02-28T07:47:41;97460.31;;;-1.10;39.29
45129;BME280;35512;56.312;101.728;2023-02-28T07:50:13;97449.09;;;-1.43;38.94
45129;BME280;35512;56.312;101.728;2023-02-28T07:52:42;97444.88;;;-1.92;39.10
45129;BME280;35512;56.312;101.728;2023-02-28T07:55:12;97419.56;;;-2.15;40.10
45129;BME280;35512;56.312;101.728;2023-02-28T07:57:42;97442.97;;;-1.43;40.12
45129;BME280;35512;56.312;101.728;2023-02-28T08:00:12;97444.78;;;-0.60;39.52
45129;BME280;35512;56.312;101.728;2023-02-28T08:02:42;97437.03;;;-0.05;39.44
45129;BME280;35512;56.312;101.728;2023-02-28T08:05:12;97439.28;;;0.54;39.29
45129;BME280;35512;56.312;101.728;2023-02-28T08:07:41;97442.97;;;1.13;39.91
45129;BME280;35512;56.312;101.728;2023-02-28T08:10:10;97430.66;;;1.62;38.91
45129;BME280;35512;56.312;101.728;2023-02-28T08:12:39;97430.16;;;1.60;38.77
45129;BME280;35512;56.312;101.728;2023-02-28T08:15:08;97435.72;;;1.24;39.26
45129;BME280;35512;56.312;101.728;2023-02-28T08:17:37;97435.81;;;0.53;38.93
45129;BME280;35512;56.312;101.728;2023-02-28T08:20:07;97428.59;;;-0.58;38.85
45129;BME280;35512;56.312;101.728;2023-02-28T08:22:37;97414.75;;;-1.75;39.87
45129;BME280;35512;56.312;101.728;2023-02-28T08:25:06;97429.28;;;-1.88;41.54
45129;BME280;35512;56.312;101.728;2023-02-28T08:27:39;97427.91;;;-1.32;40.61
45129;BME280;35512;56.312;101.728;2023-02-28T08:30:11;97421.88;;;-1.23;40.10
45129;BME280;35512;56.312;101.728;2023-02-28T08:32:40;97411.47;;;-1.34;40.21
45129;BME280;35512;56.312;101.728;2023-02-28T08:35:09;97418.88;;;-1.47;39.99
45129;BME280;35512;56.312;101.728;2023-02-28T08:37:39;97419.53;;;-2.20;39.87
45129;BME280;35512;56.312;101.728;2023-02-28T08:40:09;97429.72;;;-3.04;40.67
45129;BME280;35512;56.312;101.728;2023-02-28T08:42:39;97421.81;;;-3.93;41.53
45129;BME280;35512;56.312;101.728;2023-02-28T08:45:08;97426.50;;;-4.68;42.73
45129;BME280;35512;56.312;101.728;2023-02-28T08:47:37;97419.03;;;-5.22;43.82
45129;BME280;35512;56.312;101.728;2023-02-28T08:50:07;97420.78;;;-5.80;44.84
45129;BME280;35512;56.312;101.728;2023-02-28T08:52:36;97411.25;;;-6.22;45.53
45129;BME280;35512;56.312;101.728;2023-02-28T08:55:07;97411.94;;;-6.62;45.93
45129;BME280;35512;56.312;101.728;2023-02-28T08:57:36;97420.63;;;-6.62;46.51
45129;BME280;35512;56.312;101.728;2023-02-28T09:00:07;97415.25;;;-6.78;46.68
45129;BME280;35512;56.312;101.728;2023-02-28T09:02:36;97414.31;;;-6.84;47.23
45129;BME280;35512;56.312;101.728;2023-02-28T09:05:06;97399.75;;;-7.10;47.23
45129;BME280;35512;56.312;101.728;2023-02-28T09:07:35;97402.47;;;-7.17;47.57
45129;BME280;35512;56.312;101.728;2023-02-28T09:10:04;97408.84;;;-7.13;47.94
45129;BME280;35512;56.312;101.728;2023-02-28T09:12:34;97398.69;;;-7.21;47.54
45129;BME280;35512;56.312;101.728;2023-02-28T09:15:04;97386.94;;;-7.19;47.72
45129;BME280;35512;56.312;101.728;2023-02-28T09:17:33;97390.88;;;-7.28;48.50
45129;BME280;35512;56.312;101.728;2023-02-28T09:20:02;97389.56;;;-7.49;48.66
45129;BME280;35512;56.312;101.728;2023-02-28T09:22:31;97392.28;;;-7.56;49.35
45129;BME280;35512;56.312;101.728;2023-02-28T09:25:00;97379.00;;;-7.73;49.74
45129;BME280;35512;56.312;101.728;2023-02-28T09:27:29;97395.38;;;-7.77;49.98
45129;BME280;35512;56.312;101.728;2023-02-28T09:29:58;97383.44;;;-7.92;50.11
45129;BME280;35512;56.312;101.728;2023-02-28T09:32:27;97380.59;;;-7.90;50.48
45129;BME280;35512;56.312;101.728;2023-02-28T09:34:56;97375.44;;;-7.97;50.43
45129;BME280;35512;56.312;101.728;2023-02-28T09:37:25;97371.22;;;-7.98;50.79
45129;BME280;35512;56.312;101.728;2023-02-28T09:39:59;97362.09;;;-7.95;50.80
45129;BME280;35512;56.312;101.728;2023-02-28T09:42:32;97368.97;;;-7.94;50.62
45129;BME280;35512;56.312;101.728;2023-02-28T09:45:13;97364.59;;;-8.01;50.88
45129;BME280;35512;56.312;101.728;2023-02-28T09:47:48;97356.56;;;-8.06;51.17
45129;BME280;35512;56.312;101.728;2023-02-28T09:50:45;97347.34;;;-8.08;51.80
45129;BME280;35512;56.312;101.728;2023-02-28T09:55:51;97338.75;;;-8.34;52.85
45129;BME280;35512;56.312;101.728;2023-02-28T09:58:32;97338.81;;;-8.41;53.19
45129;BME280;35512;56.312;101.728;2023-02-28T10:04:23;97334.81;;;-8.43;53.60
45129;BME280;35512;56.312;101.728;2023-02-28T10:06:57;97322.25;;;-8.53;53.39
45129;BME280;35512;56.312;101.728;2023-02-28T10:09:31;97325.09;;;-8.55;53.95
45129;BME280;35512;56.312;101.728;2023-02-28T10:12:05;97316.88;;;-8.58;54.35
45129;BME280;35512;56.312;101.728;2023-02-28T10:14:35;97312.53;;;-8.71;54.22
45129;BME280;35512;56.312;101.728;2023-02-28T10:17:19;97317.59;;;-8.70;54.10
45129;BME280;35512;56.312;101.728;2023-02-28T10:20:02;97303.25;;;-8.67;54.34
45129;BME280;35512;56.312;101.728;2023-02-28T10:22:47;97301.88;;;-8.70;54.38
45129;BME280;35512;56.312;101.728;2023-02-28T10:25:22;97304.06;;;-8.67;55.17
45129;BME280;35512;56.312;101.728;2023-02-28T10:28:13;97296.94;;;-8.78;54.92
45129;BME280;35512;56.312;101.728;2023-02-28T10:30:51;97293.09;;;-8.82;55.34
45129;BME280;35512;56.312;101.728;2023-02-28T10:33:33;97293.81;;;-8.93;54.89
45129;BME280;35512;56.312;101.728;2023-02-28T10:36:05;97292.38;;;-8.89;55.79
45129;BME280;35512;56.312;101.728;2023-02-28T10:38:37;97287.81;;;-8.94;55.08
45129;BME280;35512;56.312;101.728;2023-02-28T10:41:13;97287.59;;;-8.92;55.65
45129;BME280;35512;56.312;101.728;2023-02-28T10:43:43;97276.03;;;-8.85;56.12
45129;BME280;35512;56.312;101.728;2023-02-28T10:46:18;97267.31;;;-8.97;55.74
45129;BME280;35512;56.312;101.728;2023-02-28T10:49:04;97269.84;;;-8.90;55.66
45129;BME280;35512;56.312;101.728;2023-02-28T10:51:39;97261.91;;;-8.84;55.91
45129;BME280;35512;56.312;101.728;2023-02-28T10:54:17;97255.09;;;-8.85;56.05
45129;BME280;35512;56.312;101.728;2023-02-28T10:57:26;97260.28;;;-8.78;56.00
45129;BME280;35512;56.312;101.728;2023-02-28T11:00:19;97268.03;;;-8.71;55.86
45129;BME280;35512;56.312;101.728;2023-02-28T11:02:52;97261.34;;;-8.67;55.79
45129;BME280;35512;56.312;101.728;2023-02-28T11:08:06;97242.44;;;-8.69;55.65
45129;BME280;35512;56.312;101.728;2023-02-28T11:10:47;97245.63;;;-8.67;55.93
45129;BME280;35512;56.312;101.728;2023-02-28T11:13:20;97236.97;;;-8.68;55.86
45129;BME280;35512;56.312;101.728;2023-02-28T11:15:57;97235.06;;;-8.60;56.35
45129;BME280;35512;56.312;101.728;2023-02-28T11:18:36;97243.16;;;-8.62;55.78
45129;BME280;35512;56.312;101.728;2023-02-28T11:21:08;97229.63;;;-8.59;56.15
45129;BME280;35512;56.312;101.728;2023-02-28T11:23:40;97226.28;;;-8.47;56.04
45129;BME280;35512;56.312;101.728;2023-02-28T11:26:10;97232.75;;;-8.50;56.02
45129;BME280;35512;56.312;101.728;2023-02-28T11:28:40;97227.28;;;-8.48;56.43
45129;BME280;35512;56.312;101.728;2023-02-28T11:33:51;97222.66;;;-8.46;56.18
45129;BME280;35512;56.312;101.728;2023-02-28T11:36:24;97222.97;;;-8.43;56.11
45129;BME280;35512;56.312;101.728;2023-02-28T11:38:56;97211.94;;;-8.45;56.30
45129;BME280;35512;56.312;101.728;2023-02-28T11:41:38;97211.00;;;-8.51;56.35
45129;BME280;35512;56.312;101.728;2023-02-28T11:47:31;97203.38;;;-8.40;56.70
45129;BME280;35512;56.312;101.728;2023-02-28T11:50:21;97196.44;;;-8.46;56.81
45129;BME280;35512;56.312;101.728;2023-02-28T11:52:52;97189.38;;;-8.46;56.56
45129;BME280;35512;56.312;101.728;2023-02-28T12:04:04;97165.47;;;-8.38;57.25
45129;BME280;35512;56.312;101.728;2023-02-28T12:06:56;97159.00;;;-8.35;57.88
45129;BME280;35512;56.312;101.728;2023-02-28T12:09:37;97151.69;;;-8.45;58.16
45129;BME280;35512;56.312;101.728;2023-02-28T12:20:33;97146.53;;;-8.40;59.02
45129;BME280;35512;56.312;101.728;2023-02-28T12:23:36;97141.88;;;-8.38;59.13
45129;BME280;35512;56.312;101.728;2023-02-28T12:26:37;97137.34;;;-8.30;59.04
45129;BME280;35512;56.312;101.728;2023-02-28T12:29:19;97135.09;;;-8.27;59.06
45129;BME280;35512;56.312;101.728;2023-02-28T12:34:35;97118.88;;;-8.36;60.06
45129;BME280;35512;56.312;101.728;2023-02-28T12:37:50;97119.47;;;-8.34;61.14
45129;BME280;35512;56.312;101.728;2023-02-28T12:40:22;97115.56;;;-8.43;61.47
45129;BME280;35512;56.312;101.728;2023-02-28T12:43:02;97105.91;;;-8.42;62.37
45129;BME280;35512;56.312;101.728;2023-02-28T12:45:40;97099.63;;;-8.53;62.26
45129;BME280;35512;56.312;101.728;2023-02-28T12:48:21;97103.47;;;-8.56;62.81
45129;BME280;35512;56.312;101.728;2023-02-28T12:50:53;97096.16;;;-8.65;63.13
45129;BME280;35512;56.312;101.728;2023-02-28T12:56:20;97079.63;;;-8.78;63.87
45129;BME280;35512;56.312;101.728;2023-02-28T12:59:01;97079.56;;;-8.90;63.77
45129;BME280;35512;56.312;101.728;2023-02-28T13:09:38;97066.78;;;-9.17;65.23
45129;BME280;35512;56.312;101.728;2023-02-28T13:12:15;97068.19;;;-9.14;65.69
45129;BME280;35512;56.312;101.728;2023-02-28T13:14:45;97061.56;;;-9.17;65.63
45129;BME280;35512;56.312;101.728;2023-02-28T13:17:23;97058.59;;;-9.20;66.05
45129;BME280;35512;56.312;101.728;2023-02-28T13:24:57;97040.47;;;-9.22;66.43
45129;BME280;35512;56.312;101.728;2023-02-28T13:27:38;97046.31;;;-9.20;66.42
45129;BME280;35512;56.312;101.728;2023-02-28T13:33:34;97048.16;;;-9.08;66.06
45129;BME280;35512;56.312;101.728;2023-02-28T13:44:19;97009.75;;;-9.08;66.46
45129;BME280;35512;56.312;101.728;2023-02-28T13:58:20;97006.38;;;-9.15;66.53
45129;BME280;35512;56.312;101.728;2023-02-28T14:06:49;96977.84;;;-9.17;66.90
45129;BME280;35512;56.312;101.728;2023-02-28T14:09:35;96980.00;;;-9.13;66.66
45129;BME280;35512;56.312;101.728;2023-02-28T14:18:25;96952.16;;;-9.08;66.91
45129;BME280;35512;56.312;101.728;2023-02-28T14:26:25;96944.56;;;-8.97;66.99
45129;BME280;35512;56.312;101.728;2023-02-28T14:29:29;96948.91;;;-8.91;66.76
45129;BME280;35512;56.312;101.728;2023-02-28T14:34:54;96923.97;;;-8.82;66.71
45129;BME280;35512;56.312;101.728;2023-02-28T14:37:30;96915.47;;;-8.77;66.82
45129;BME280;35512;56.312;101.728;2023-02-28T14:40:02;96918.22;;;-8.72;66.34
45129;BME280;35512;56.312;101.728;2023-02-28T14:42:35;96900.22;;;-8.69;66.89
45129;BME280;35512;56.312;101.728;2023-02-28T14:45:06;96905.09;;;-8.60;66.68
45129;BME280;35512;56.312;101.728;2023-02-28T14:47:36;96908.44;;;-8.53;66.99
45129;BME280;35512;56.312;101.728;2023-02-28T14:50:05;96872.00;;;-8.67;67.43
45129;BME280;35512;56.312;101.728;2023-02-28T14:52:34;96880.63;;;-8.54;67.40
45129;BME280;35512;56.312;101.728;2023-02-28T14:55:05;96888.16;;;-8.46;67.41
45129;BME280;35512;56.312;101.728;2023-02-28T14:57:41;96862.31;;;-8.54;67.47
45129;BME280;35512;56.312;101.728;2023-02-28T15:00:15;96875.06;;;-8.46;67.80
45129;BME280;35512;56.312;101.728;2023-02-28T15:02:45;96864.69;;;-8.53;67.64
45129;BME280;35512;56.312;101.728;2023-02-28T15:07:48;96858.91;;;-8.55;67.90
45129;BME280;35512;56.312;101.728;2023-02-28T15:13:21;96858.75;;;-8.48;68.03
45129;BME280;35512;56.312;101.728;2023-02-28T15:16:02;96851.47;;;-8.46;67.65
45129;BME280;35512;56.312;101.728;2023-02-28T15:18:52;96844.72;;;-8.42;67.80
45129;BME280;35512;56.312;101.728;2023-02-28T15:21:30;96824.00;;;-8.43;67.72
45129;BME280;35512;56.312;101.728;2023-02-28T15:26:45;96825.56;;;-8.30;67.66
45129;BME280;35512;56.312;101.728;2023-02-28T15:29:19;96829.78;;;-8.29;67.90
45129;BME280;35512;56.312;101.728;2023-02-28T15:31:51;96828.28;;;-8.25;67.83
45129;BME280;35512;56.312;101.728;2023-02-28T15:34:33;96824.97;;;-8.21;68.03
45129;BME280;35512;56.312;101.728;2023-02-28T15:40:15;96814.47;;;-8.21;67.79